createdAt,value
2022-10-05T00:00:03.744Z,12.19
2022-10-05T00:01:17.064Z,12.17
2022-10-05T00:02:21.706Z,12.29
2022-10-05T00:03:29.523Z,12.33
2022-10-05T00:04:32.969Z,12.42
2022-10-05T00:05:35.301Z,12.51
2022-10-05T00:06:39.076Z,12.55
2022-10-05T00:07:42.538Z,12.53
2022-10-05T00:08:45.720Z,12.60
2022-10-05T00:09:51.974Z,12.62
2022-10-05T00:10:55.491Z,12.63
2022-10-05T00:12:02.057Z,12.48
2022-10-05T00:13:07.517Z,12.24
2022-10-05T00:14:11.740Z,12.39
2022-10-05T00:15:16.717Z,12.42
2022-10-05T00:16:21.564Z,12.49
2022-10-05T00:17:26.524Z,12.48
2022-10-05T00:18:29.866Z,12.42
2022-10-05T00:19:35.010Z,12.45
2022-10-05T00:20:38.628Z,12.34
2022-10-05T00:21:42.133Z,12.37
2022-10-05T00:22:45.535Z,12.27
2022-10-05T00:23:51.743Z,12.24
2022-10-05T00:24:59.752Z,12.27
2022-10-05T00:26:13.282Z,12.25
2022-10-05T00:27:21.177Z,12.22
2022-10-05T00:28:29.415Z,12.20
2022-10-05T00:29:34.789Z,12.11
2022-10-05T00:30:38.688Z,12.00
2022-10-05T00:31:42.265Z,11.93
2022-10-05T00:32:46.001Z,11.94
2022-10-05T00:33:49.935Z,12.02
2022-10-05T00:34:53.430Z,12.01
2022-10-05T00:36:17.836Z,12.03
2022-10-05T00:37:21.851Z,11.86
2022-10-05T00:38:25.078Z,11.92
2022-10-05T00:39:29.970Z,11.90
2022-10-05T00:40:38.224Z,11.92
2022-10-05T00:41:47.984Z,11.91
2022-10-05T00:42:53.343Z,11.94
2022-10-05T00:44:08.981Z,11.81
2022-10-05T00:45:17.836Z,11.72
2022-10-05T00:46:23.402Z,11.76
2022-10-05T00:47:33.722Z,11.76
2022-10-05T00:48:51.634Z,11.82
2022-10-05T00:50:11.743Z,11.83
2022-10-05T00:51:31.221Z,11.62
2022-10-05T00:52:52.710Z,11.70
2022-10-05T00:54:08.122Z,11.75
2022-10-05T00:55:13.924Z,11.89
2022-10-05T00:56:37.797Z,11.88
2022-10-05T00:57:55.297Z,11.63
2022-10-05T00:59:06.218Z,11.68
2022-10-05T01:00:12.962Z,11.66
2022-10-05T01:01:24.629Z,11.75
2022-10-05T01:02:36.854Z,11.84
2022-10-05T01:03:59.092Z,11.87
2022-10-05T01:05:05.442Z,11.91
2022-10-05T01:06:11.315Z,11.94
2022-10-05T01:07:22.548Z,11.91
2022-10-05T01:08:39.958Z,11.85
2022-10-05T01:10:04.758Z,11.92
2022-10-05T01:11:27.399Z,11.91
2022-10-05T01:12:50.950Z,11.85
2022-10-05T01:13:55.079Z,11.79
2022-10-05T01:15:06.522Z,11.92
2022-10-05T01:16:14.866Z,11.96
2022-10-05T01:17:27.527Z,12.04
2022-10-05T01:18:33.017Z,12.03
2022-10-05T01:19:56.460Z,12.06
2022-10-05T01:21:00.697Z,12.01
2022-10-05T01:22:09.425Z,12.04
2022-10-05T01:23:27.031Z,12.06
2022-10-05T01:24:36.071Z,12.17
2022-10-05T01:25:44.830Z,12.18
2022-10-05T01:27:06.280Z,12.16
2022-10-05T01:28:10.931Z,12.24
2022-10-05T01:29:26.766Z,12.24
2022-10-05T01:30:38.654Z,12.23
2022-10-05T01:31:43.949Z,12.30
2022-10-05T01:33:00.558Z,12.35
2022-10-05T01:34:22.875Z,12.28
2022-10-05T01:35:32.338Z,12.29
2022-10-05T01:36:52.540Z,12.17
2022-10-05T01:37:57.575Z,12.22
2022-10-05T01:39:01.964Z,12.13
2022-10-05T01:40:11.100Z,12.14
2022-10-05T01:41:27.877Z,12.16
2022-10-05T01:42:39.531Z,12.21
2022-10-05T01:43:44.914Z,12.18
2022-10-05T01:45:01.998Z,12.22
2022-10-05T01:46:10.254Z,12.26
2022-10-05T01:47:14.863Z,12.33
2022-10-05T01:48:37.058Z,12.31
2022-10-05T01:49:48.398Z,12.28
2022-10-05T01:51:03.005Z,12.20
2022-10-05T01:52:23.510Z,12.11
2022-10-05T01:53:46.484Z,11.97
2022-10-05T01:54:52.827Z,12.14
2022-10-05T01:55:57.343Z,12.12
2022-10-05T01:57:11.894Z,12.13
2022-10-05T01:58:26.139Z,12.13
2022-10-05T01:59:38.418Z,12.02
2022-10-05T02:00:43.662Z,11.98
2022-10-05T02:01:58.825Z,11.98
2022-10-05T02:03:14.951Z,11.96
2022-10-05T02:04:42.632Z,11.93
2022-10-05T02:06:35.274Z,11.94
2022-10-05T02:07:45.883Z,11.98
2022-10-05T02:08:56.491Z,12.10
2022-10-05T02:10:06.793Z,11.93
2022-10-05T02:11:11.960Z,12.00
2022-10-05T02:12:17.003Z,12.06
2022-10-05T02:13:23.366Z,12.21
2022-10-05T02:14:30.427Z,12.21
2022-10-05T02:15:37.528Z,12.23
2022-10-05T02:16:46.061Z,12.18
2022-10-05T02:17:51.381Z,12.21
2022-10-05T02:18:55.926Z,12.21
2022-10-05T02:20:06.960Z,12.31
2022-10-05T02:21:10.645Z,12.35
2022-10-05T02:22:18.981Z,12.13
2022-10-05T02:23:23.739Z,12.20
2022-10-05T02:24:28.800Z,12.14
2022-10-05T02:25:33.986Z,12.03
2022-10-05T02:26:40.312Z,11.95
2022-10-05T02:27:58.827Z,11.93
2022-10-05T02:29:04.555Z,12.05
2022-10-05T02:30:12.803Z,12.18
2022-10-05T02:31:18.604Z,12.31
2022-10-05T02:32:26.351Z,12.31
2022-10-05T02:33:31.006Z,12.26
2022-10-05T02:34:41.193Z,12.16
2022-10-05T02:35:52.210Z,12.09
2022-10-05T02:37:13.261Z,11.99
2022-10-05T02:38:30.387Z,12.02
2022-10-05T02:39:40.336Z,12.18
2022-10-05T02:40:51.141Z,12.05
2022-10-05T02:41:57.579Z,12.08
2022-10-05T02:43:03.281Z,12.01
2022-10-05T02:44:09.497Z,11.88
2022-10-05T02:45:32.870Z,12.04
2022-10-05T02:46:41.829Z,12.08
2022-10-05T02:48:05.020Z,11.93
2022-10-05T02:49:10.095Z,11.96
2022-10-05T02:50:22.505Z,11.95
2022-10-05T02:51:27.873Z,12.10
2022-10-05T02:52:33.039Z,12.06
2022-10-05T02:53:37.084Z,12.10
2022-10-05T02:54:54.786Z,12.07
2022-10-05T02:56:01.843Z,11.99
2022-10-05T02:57:12.965Z,12.03
2022-10-05T02:58:18.252Z,11.95
2022-10-05T02:59:24.684Z,11.86
2022-10-05T03:00:30.487Z,11.85
2022-10-05T03:01:35.695Z,11.95
2022-10-05T03:02:43.343Z,11.88
2022-10-05T03:03:55.553Z,11.88
2022-10-05T03:05:05.082Z,11.95
2022-10-05T03:06:20.326Z,11.96
2022-10-05T03:07:37.892Z,12.02
2022-10-05T03:08:49.437Z,11.94
2022-10-05T03:10:01.242Z,11.92
2022-10-05T03:11:23.918Z,12.07
2022-10-05T03:12:41.419Z,11.96
2022-10-05T03:13:49.093Z,12.12
2022-10-05T03:14:53.965Z,12.04
2022-10-05T03:15:59.168Z,12.00
2022-10-05T03:17:15.794Z,11.90
2022-10-05T03:18:36.283Z,11.76
2022-10-05T03:19:58.841Z,11.76
2022-10-05T03:21:13.984Z,11.83
2022-10-05T03:22:37.196Z,11.72
2022-10-05T03:23:43.917Z,11.71
2022-10-05T03:24:55.068Z,11.63
2022-10-05T03:26:03.511Z,11.71
2022-10-05T03:27:07.719Z,11.74
2022-10-05T03:28:17.128Z,11.81
2022-10-05T03:29:31.579Z,11.69
2022-10-05T03:30:42.889Z,11.51
2022-10-05T03:31:48.169Z,11.43
2022-10-05T03:32:56.054Z,11.41
2022-10-05T03:34:13.315Z,11.45
2022-10-05T03:35:29.805Z,11.42
2022-10-05T03:36:36.823Z,11.42
2022-10-05T03:37:48.095Z,11.40
2022-10-05T03:38:56.403Z,11.49
2022-10-05T03:40:09.936Z,11.52
2022-10-05T03:41:18.350Z,11.46
2022-10-05T03:42:36.165Z,11.53
2022-10-05T03:43:47.806Z,11.59
2022-10-05T03:44:53.097Z,11.50
2022-10-05T03:46:01.445Z,11.57
2022-10-05T03:47:25.906Z,11.59
2022-10-05T03:48:34.402Z,11.63
2022-10-05T03:49:42.943Z,11.50
2022-10-05T03:50:55.138Z,11.51
2022-10-05T03:53:23.935Z,11.51
2022-10-05T03:54:34.044Z,11.48
2022-10-05T03:55:39.519Z,11.53
2022-10-05T03:56:44.716Z,11.46
2022-10-05T03:57:50.615Z,11.34
2022-10-05T03:58:56.209Z,11.45
2022-10-05T04:00:14.719Z,11.47
2022-10-05T04:01:22.081Z,11.49
2022-10-05T04:02:31.809Z,11.56
2022-10-05T04:03:37.038Z,11.48
2022-10-05T04:04:41.867Z,11.44
2022-10-05T04:05:57.558Z,11.49
2022-10-05T04:07:03.157Z,11.57
2022-10-05T04:08:14.374Z,11.64
2022-10-05T04:09:19.630Z,11.64
2022-10-05T04:10:24.214Z,11.63
2022-10-05T04:11:32.303Z,11.64
2022-10-05T04:12:38.526Z,11.70
2022-10-05T04:13:47.043Z,11.70
2022-10-05T04:14:51.707Z,11.73
2022-10-05T04:15:56.076Z,11.85
2022-10-05T04:17:00.598Z,11.78
2022-10-05T04:18:05.348Z,11.92
2022-10-05T04:19:12.923Z,11.86
2022-10-05T04:20:35.438Z,11.86
2022-10-05T04:21:41.906Z,11.92
2022-10-05T04:22:48.136Z,11.92
2022-10-05T04:23:55.643Z,11.92
2022-10-05T04:25:08.941Z,11.96
2022-10-05T04:26:14.623Z,11.95
2022-10-05T04:27:21.795Z,12.01
2022-10-05T04:28:32.406Z,12.12
2022-10-05T04:29:43.703Z,11.92
2022-10-05T04:30:48.344Z,11.91
2022-10-05T04:31:53.281Z,11.89
2022-10-05T04:32:58.916Z,11.89
2022-10-05T04:34:21.437Z,11.88
2022-10-05T04:35:42.055Z,11.63
2022-10-05T04:36:48.580Z,11.73
2022-10-05T04:38:01.493Z,11.67
2022-10-05T04:39:13.992Z,11.83
2022-10-05T04:40:28.778Z,12.02
2022-10-05T04:41:49.850Z,12.13
2022-10-05T04:42:59.896Z,12.23
2022-10-05T04:44:20.643Z,12.10
2022-10-05T04:45:27.086Z,12.16
2022-10-05T04:46:37.430Z,12.22
2022-10-05T04:47:43.530Z,12.30
2022-10-05T04:48:54.416Z,12.64
2022-10-05T04:50:04.698Z,12.97
2022-10-05T04:51:26.535Z,12.69
2022-10-05T04:53:52.617Z,12.64
2022-10-05T04:55:06.452Z,12.64
2022-10-05T04:56:12.161Z,12.53
2022-10-05T04:57:18.694Z,12.42
2022-10-05T04:58:30.858Z,12.25
2022-10-05T04:59:48.997Z,12.19
2022-10-05T05:01:11.739Z,12.20
2022-10-05T05:02:27.370Z,12.40
2022-10-05T05:03:33.039Z,12.43
2022-10-05T05:04:53.779Z,12.40
2022-10-05T05:06:16.516Z,12.61
2022-10-05T05:07:06.117Z,12.58
2022-10-05T05:08:18.458Z,12.54
2022-10-05T05:09:25.648Z,12.49
2022-10-05T05:10:45.902Z,12.63
2022-10-05T05:12:11.311Z,12.69
2022-10-05T05:13:19.720Z,12.52
2022-10-05T05:14:30.118Z,12.61
2022-10-05T05:15:51.431Z,12.61
2022-10-05T05:17:12.228Z,12.60
2022-10-05T05:18:12.812Z,12.67
2022-10-05T05:19:37.312Z,12.79
2022-10-05T05:20:49.305Z,12.72
2022-10-05T05:22:00.615Z,12.84
2022-10-05T05:23:07.153Z,12.84
2022-10-05T05:24:27.993Z,12.94
2022-10-05T05:25:37.462Z,13.00
2022-10-05T05:26:46.333Z,13.13
2022-10-05T05:27:55.907Z,13.02
2022-10-05T05:29:07.603Z,12.99
2022-10-05T05:30:21.866Z,12.92
2022-10-05T05:31:27.920Z,12.96
2022-10-05T05:32:37.576Z,13.00
2022-10-05T05:33:52.947Z,13.23
2022-10-05T05:35:00.944Z,13.12
2022-10-05T05:36:20.737Z,13.22
2022-10-05T05:37:34.974Z,13.26
2022-10-05T05:38:43.106Z,13.14
2022-10-05T05:39:59.164Z,13.05
2022-10-05T05:41:03.392Z,13.22
2022-10-05T05:42:16.235Z,13.04
2022-10-05T05:43:25.431Z,13.00
2022-10-05T05:44:29.678Z,12.85
2022-10-05T05:45:43.933Z,13.35
2022-10-05T05:47:06.868Z,13.61
2022-10-05T05:48:26.495Z,13.66
2022-10-05T05:49:40.821Z,13.44
2022-10-05T05:50:51.962Z,13.18
2022-10-05T05:51:56.192Z,13.27
2022-10-05T05:53:02.395Z,13.07
2022-10-05T05:54:24.309Z,13.10
2022-10-05T05:55:30.515Z,13.26
2022-10-05T05:56:37.677Z,13.34
2022-10-05T05:57:42.330Z,13.19
2022-10-05T06:24:03.269Z,13.79
2022-10-05T06:25:17.009Z,14.41
2022-10-05T06:26:33.780Z,14.58
2022-10-05T06:27:38.120Z,15.42
2022-10-05T06:28:42.914Z,15.84
2022-10-05T06:29:51.926Z,15.62
2022-10-05T06:31:03.376Z,15.29
2022-10-05T06:32:12.331Z,15.23
2022-10-05T06:33:26.677Z,15.19
2022-10-05T06:34:35.651Z,14.65
2022-10-05T06:36:00.008Z,14.83
2022-10-05T06:37:07.056Z,15.43
2022-10-05T06:38:28.326Z,16.26
2022-10-05T06:39:33.920Z,16.93
2022-10-05T06:40:39.816Z,17.07
2022-10-05T06:42:06.821Z,16.05
2022-10-05T06:44:36.502Z,16.27
2022-10-05T06:46:13.586Z,15.64
2022-10-05T06:47:32.439Z,15.90
2022-10-05T06:48:41.130Z,15.75
2022-10-05T06:49:58.969Z,15.24
2022-10-05T06:51:27.202Z,14.99
2022-10-05T06:52:46.169Z,14.56
2022-10-05T06:53:50.610Z,14.65
2022-10-05T06:55:14.282Z,15.46
2022-10-05T06:56:20.268Z,16.86
2022-10-05T06:57:43.312Z,15.53
2022-10-05T06:58:53.084Z,14.97
2022-10-05T07:00:10.271Z,14.75
2022-10-05T07:01:16.986Z,14.90
2022-10-05T07:02:23.663Z,15.06
2022-10-05T07:03:46.075Z,16.80
2022-10-05T07:04:59.495Z,17.57
2022-10-05T07:06:04.738Z,16.75
2022-10-05T07:07:11.176Z,15.83
2022-10-05T07:08:28.582Z,15.36
2022-10-05T07:09:33.698Z,15.10
2022-10-05T07:10:45.335Z,14.87
2022-10-05T07:11:55.812Z,14.67
2022-10-05T07:13:12.983Z,14.81
2022-10-05T07:14:20.076Z,15.03
2022-10-05T07:15:28.063Z,15.34
2022-10-05T07:16:33.624Z,15.83
2022-10-05T07:17:42.175Z,16.11
2022-10-05T07:18:53.111Z,15.83
2022-10-05T07:19:58.597Z,17.52
2022-10-05T07:21:06.691Z,20.33
2022-10-05T07:22:14.695Z,20.23
2022-10-05T07:23:39.091Z,20.00
2022-10-05T07:24:54.084Z,19.19
2022-10-05T07:26:02.172Z,17.47
2022-10-05T07:27:11.953Z,17.58
2022-10-05T07:28:23.057Z,18.14
2022-10-05T07:29:30.950Z,20.15
2022-10-05T07:32:14.846Z,24.94
2022-10-05T07:33:25.048Z,23.69
2022-10-05T07:34:31.465Z,22.86
2022-10-05T07:36:01.513Z,23.97
2022-10-05T07:37:25.071Z,22.93
2022-10-05T07:38:38.049Z,21.70
2022-10-05T07:39:59.490Z,23.43
2022-10-05T07:40:50.734Z,22.02
2022-10-05T07:41:55.490Z,21.46
2022-10-05T07:43:01.071Z,21.66
2022-10-05T07:44:14.740Z,23.27
2022-10-05T07:45:21.974Z,21.87
2022-10-05T07:46:28.299Z,19.64
2022-10-05T07:47:32.847Z,21.08
2022-10-05T07:48:41.887Z,23.45
2022-10-05T07:49:51.085Z,24.63
2022-10-05T07:50:58.821Z,25.02
2022-10-05T07:52:05.668Z,25.84
2022-10-05T07:53:14.967Z,24.08
2022-10-05T07:54:26.372Z,22.84
2022-10-05T07:55:34.358Z,20.73
2022-10-05T07:56:44.543Z,19.06
2022-10-05T07:58:04.137Z,18.28
2022-10-05T07:59:10.551Z,20.44
2022-10-05T08:00:17.215Z,19.68
2022-10-05T08:01:24.761Z,18.34
2022-10-05T08:02:41.551Z,17.85
2022-10-05T08:03:59.786Z,19.94
2022-10-05T08:05:08.104Z,18.71
2022-10-05T08:06:13.700Z,17.89
2022-10-05T08:07:17.661Z,17.14
2022-10-05T08:08:29.904Z,16.82
2022-10-05T08:09:36.739Z,16.71
2022-10-05T08:10:43.073Z,16.40
2022-10-05T08:11:49.401Z,16.63
2022-10-05T08:13:14.211Z,17.48
2022-10-05T08:14:25.549Z,16.99
2022-10-05T08:15:34.668Z,19.63
2022-10-05T08:16:39.422Z,20.84
2022-10-05T08:17:52.513Z,22.37
2022-10-05T08:18:57.229Z,20.63
2022-10-05T08:20:18.586Z,19.39
2022-10-05T08:21:27.409Z,18.64
2022-10-05T08:22:39.799Z,18.06
2022-10-05T08:23:51.547Z,17.04
2022-10-05T08:24:56.839Z,17.12
2022-10-05T08:26:11.520Z,16.69
2022-10-05T08:28:42.333Z,17.80
2022-10-05T08:29:56.508Z,17.73
2022-10-05T08:31:00.985Z,17.09
2022-10-05T08:32:05.289Z,16.74
2022-10-05T08:33:10.568Z,16.30
2022-10-05T08:34:18.148Z,16.32
2022-10-05T08:35:34.594Z,16.18
2022-10-05T08:36:53.633Z,16.41
2022-10-05T08:37:56.334Z,16.44
2022-10-05T08:39:02.240Z,16.50
2022-10-05T08:40:07.147Z,16.43
2022-10-05T08:41:27.944Z,16.58
2022-10-05T08:42:37.828Z,16.47
2022-10-05T08:43:57.310Z,16.36
2022-10-05T08:45:01.575Z,16.57
2022-10-05T08:46:25.401Z,16.39
2022-10-05T08:47:36.651Z,16.34
2022-10-05T08:48:44.695Z,16.47
2022-10-05T08:49:50.927Z,16.86
2022-10-05T08:50:57.931Z,17.06
2022-10-05T08:52:24.196Z,16.75
2022-10-05T08:53:28.756Z,16.81
2022-10-05T08:54:45.202Z,16.70
2022-10-05T08:55:55.958Z,16.43
2022-10-05T08:57:18.847Z,16.60
2022-10-05T08:58:34.054Z,16.60
2022-10-05T08:59:38.711Z,16.23
2022-10-05T09:00:50.304Z,16.07
2022-10-05T09:02:00.549Z,16.12
2022-10-05T09:03:21.296Z,16.15
2022-10-05T09:04:35.361Z,16.46
2022-10-05T09:06:01.961Z,16.68
2022-10-05T09:07:10.770Z,16.76
2022-10-05T09:08:19.910Z,16.25
2022-10-05T09:09:27.377Z,16.09
2022-10-05T09:10:41.755Z,16.12
2022-10-05T09:11:51.632Z,15.93
2022-10-05T09:13:16.077Z,16.11
2022-10-05T09:14:30.384Z,16.33
2022-10-05T09:15:37.160Z,16.86
2022-10-05T09:16:41.686Z,16.58
2022-10-05T09:17:47.176Z,16.52
2022-10-05T09:19:00.401Z,16.35
2022-10-05T09:20:04.411Z,16.29
2022-10-05T09:21:26.507Z,16.29
2022-10-05T09:22:34.445Z,16.44
2022-10-05T09:23:39.795Z,16.22
2022-10-05T09:24:59.491Z,16.06
2022-10-05T09:26:07.486Z,16.13
2022-10-05T09:27:14.977Z,15.81
2022-10-05T09:28:22.385Z,15.77
2022-10-05T09:29:30.328Z,15.59
2022-10-05T09:30:42.459Z,15.51
2022-10-05T09:31:51.322Z,15.70
2022-10-05T09:33:14.265Z,15.68
2022-10-05T09:34:27.066Z,15.68
2022-10-05T09:35:31.604Z,15.98
2022-10-05T09:36:42.158Z,15.90
2022-10-05T09:37:59.619Z,16.06
2022-10-05T09:39:07.928Z,16.10
2022-10-05T09:40:30.862Z,16.57
2022-10-05T09:41:52.646Z,16.74
2022-10-05T09:43:01.164Z,17.35
2022-10-05T09:44:22.138Z,17.56
2022-10-05T09:45:27.381Z,17.49
2022-10-05T09:46:31.567Z,17.71
2022-10-05T09:47:54.863Z,17.70
2022-10-05T09:49:14.297Z,17.91
2022-10-05T09:50:19.421Z,18.06
2022-10-05T09:51:44.031Z,18.11
2022-10-05T09:53:06.035Z,18.40
2022-10-05T09:54:13.395Z,18.48
2022-10-05T09:55:30.897Z,18.52
2022-10-05T09:56:43.073Z,18.87
2022-10-05T09:58:08.161Z,18.26
2022-10-05T09:59:28.940Z,18.12
2022-10-05T10:00:37.559Z,17.85
2022-10-05T10:01:50.846Z,17.71
2022-10-05T10:03:01.800Z,17.66
2022-10-05T10:04:16.274Z,17.35
2022-10-05T10:05:26.674Z,17.82
2022-10-05T10:06:37.386Z,17.62
2022-10-05T10:07:57.708Z,17.45
2022-10-05T10:09:03.413Z,17.71
2022-10-05T10:10:10.681Z,17.54
2022-10-05T10:11:18.655Z,17.14
2022-10-05T10:12:41.730Z,17.09
2022-10-05T10:13:47.231Z,17.35
2022-10-05T10:15:08.863Z,17.45
2022-10-05T10:16:20.598Z,17.53
2022-10-05T10:17:29.776Z,17.30
2022-10-05T10:18:51.871Z,16.90
2022-10-05T10:19:57.256Z,17.13
2022-10-05T10:21:03.316Z,17.20
2022-10-05T10:22:24.215Z,17.57
2022-10-05T10:23:35.800Z,17.83
2022-10-05T10:24:39.990Z,17.95
2022-10-05T10:25:47.995Z,17.94
2022-10-05T10:27:09.768Z,18.04
2022-10-05T10:28:36.314Z,17.74
2022-10-05T10:29:40.945Z,17.74
2022-10-05T10:30:54.977Z,17.96
2022-10-05T10:32:05.462Z,17.75
2022-10-05T10:33:16.219Z,17.91
2022-10-05T10:34:31.379Z,17.96
2022-10-05T10:35:39.940Z,17.95
2022-10-05T10:36:53.375Z,17.72
2022-10-05T10:38:01.099Z,17.18
2022-10-05T10:39:15.280Z,17.09
2022-10-05T10:40:23.998Z,17.23
2022-10-05T10:41:31.787Z,17.58
2022-10-05T10:42:51.584Z,17.63
2022-10-05T10:44:06.474Z,17.64
2022-10-05T10:45:17.919Z,17.66
2022-10-05T10:46:23.325Z,17.46
2022-10-05T10:47:37.576Z,17.70
2022-10-05T10:48:41.814Z,17.87
2022-10-05T10:49:55.448Z,17.95
2022-10-05T10:51:08.413Z,18.03
2022-10-05T10:52:32.404Z,17.88
2022-10-05T10:55:07.016Z,17.87
2022-10-05T10:56:12.945Z,17.75
2022-10-05T10:57:24.300Z,17.87
2022-10-05T10:58:35.921Z,17.88
2022-10-05T10:59:57.492Z,18.00
2022-10-05T11:01:19.433Z,17.78
2022-10-05T11:02:24.829Z,17.69
2022-10-05T11:03:42.475Z,17.36
2022-10-05T11:04:51.775Z,17.13
2022-10-05T11:06:13.433Z,16.98
2022-10-05T11:07:31.590Z,17.11
2022-10-05T11:08:39.831Z,17.37
2022-10-05T11:10:07.262Z,17.43
2022-10-05T11:11:11.914Z,17.59
2022-10-05T11:12:34.738Z,17.58
2022-10-05T11:13:41.070Z,17.21
2022-10-05T11:14:50.319Z,17.31
2022-10-05T11:17:21.448Z,17.28
2022-10-05T11:18:26.845Z,17.40
2022-10-05T11:20:04.861Z,17.56
2022-10-05T11:21:11.977Z,17.22
2022-10-05T11:22:25.707Z,17.14
2022-10-05T11:23:39.058Z,17.10
2022-10-05T11:24:47.654Z,17.43
2022-10-05T11:25:58.161Z,17.34
2022-10-05T11:27:12.624Z,17.68
2022-10-05T11:28:34.556Z,17.92
2022-10-05T11:29:40.846Z,17.83
2022-10-05T11:30:55.496Z,17.95
2022-10-05T11:32:17.099Z,18.11
2022-10-05T11:33:28.447Z,17.95
2022-10-05T11:34:46.422Z,17.68
2022-10-05T11:36:03.486Z,17.85
2022-10-05T11:37:12.739Z,17.87
2022-10-05T11:38:36.884Z,17.78
2022-10-05T11:39:58.459Z,17.89
2022-10-05T11:41:09.288Z,17.64
2022-10-05T11:42:33.350Z,17.57
2022-10-05T11:43:51.684Z,17.53
2022-10-05T11:45:07.105Z,17.33
2022-10-05T11:46:12.469Z,17.39
2022-10-05T11:47:26.608Z,17.61
2022-10-05T11:48:42.734Z,17.72
2022-10-05T11:49:59.866Z,17.55
2022-10-05T11:51:14.171Z,17.42
2022-10-05T11:52:22.657Z,17.73
2022-10-05T11:53:32.089Z,17.73
2022-10-05T11:54:58.502Z,17.35
2022-10-05T11:55:44.024Z,17.35
2022-10-05T11:56:50.888Z,17.52
2022-10-05T11:57:57.615Z,17.25
2022-10-05T11:59:03.012Z,17.22
2022-10-05T12:00:13.950Z,16.98
2022-10-05T12:01:27.797Z,17.02
2022-10-05T12:02:37.809Z,17.11
2022-10-05T12:04:00.183Z,17.14
2022-10-05T12:05:24.147Z,16.85
2022-10-05T12:06:30.783Z,16.98
2022-10-05T12:07:45.465Z,16.95
2022-10-05T12:08:57.349Z,16.95
2022-10-05T12:10:14.724Z,16.96
2022-10-05T12:11:35.781Z,17.03
2022-10-05T12:12:41.081Z,17.03
2022-10-05T12:13:46.226Z,16.86
2022-10-05T12:14:53.484Z,16.82
2022-10-05T12:16:07.820Z,16.72
2022-10-05T12:17:20.976Z,16.57
2022-10-05T12:18:35.595Z,16.50
2022-10-05T12:19:42.703Z,16.63
2022-10-05T12:20:57.490Z,16.65
2022-10-05T12:22:11.345Z,16.62
2022-10-05T12:23:31.458Z,16.71
2022-10-05T12:24:39.245Z,16.75
2022-10-05T12:25:47.514Z,16.93
2022-10-05T12:27:01.818Z,16.81
2022-10-05T12:28:09.676Z,16.79
2022-10-05T12:29:24.706Z,16.50
2022-10-05T12:30:31.138Z,16.45
2022-10-05T12:31:38.226Z,16.60
2022-10-05T12:32:48.065Z,16.57
2022-10-05T12:33:54.093Z,16.67
2022-10-05T12:35:01.995Z,16.62
2022-10-05T12:36:10.906Z,16.58
2022-10-05T12:37:19.622Z,16.49
2022-10-05T12:38:28.979Z,16.44
2022-10-05T12:41:09.978Z,16.35
2022-10-05T12:42:27.237Z,16.34
2022-10-05T12:43:41.260Z,16.39
2022-10-05T12:44:49.076Z,16.43
2022-10-05T12:46:12.031Z,16.57
2022-10-05T12:47:35.256Z,16.51
2022-10-05T12:48:43.435Z,16.51
2022-10-05T12:49:54.382Z,16.53
2022-10-05T12:51:02.588Z,16.49
2022-10-05T12:52:07.334Z,16.50
2022-10-05T12:53:29.221Z,16.54
2022-10-05T12:54:45.928Z,16.71
2022-10-05T12:55:54.301Z,16.94
2022-10-05T12:57:01.314Z,16.71
2022-10-05T12:58:07.678Z,16.62
2022-10-05T12:59:23.522Z,16.71
2022-10-05T13:00:32.345Z,16.72
2022-10-05T13:01:38.790Z,16.76
2022-10-05T13:02:42.896Z,16.66
2022-10-05T13:03:48.613Z,16.63
2022-10-05T13:04:53.364Z,16.79
2022-10-05T13:06:05.862Z,16.99
2022-10-05T13:07:13.371Z,16.81
2022-10-05T13:08:19.886Z,16.58
2022-10-05T13:09:26.961Z,16.44
2022-10-05T13:10:34.911Z,16.48
2022-10-05T13:11:38.937Z,16.41
2022-10-05T13:12:56.229Z,16.37
2022-10-05T13:14:03.077Z,16.05
2022-10-05T13:15:10.980Z,16.07
2022-10-05T13:16:17.450Z,16.18
2022-10-05T13:17:28.015Z,16.11
2022-10-05T13:18:34.968Z,16.15
2022-10-05T13:19:45.042Z,16.20
2022-10-05T13:20:49.441Z,16.11
2022-10-05T13:21:57.701Z,16.09
2022-10-05T13:23:03.191Z,16.09
2022-10-05T13:24:19.019Z,16.13
2022-10-05T13:25:27.529Z,16.03
2022-10-05T13:26:34.962Z,16.18
2022-10-05T13:27:54.189Z,15.99
2022-10-05T13:29:02.893Z,15.88
2022-10-05T13:30:08.856Z,15.93
2022-10-05T13:31:23.861Z,15.88
2022-10-05T13:32:34.726Z,15.87
2022-10-05T13:33:55.268Z,16.02
2022-10-05T13:35:16.946Z,16.11
2022-10-05T13:36:27.762Z,16.05
2022-10-05T13:37:34.504Z,15.96
2022-10-05T13:38:39.674Z,16.18
2022-10-05T13:39:52.797Z,16.19
2022-10-05T13:41:16.201Z,16.18
2022-10-05T13:42:21.535Z,16.27
2022-10-05T13:43:43.623Z,16.24
2022-10-05T13:44:49.987Z,16.25
2022-10-05T13:45:57.109Z,16.21
2022-10-05T13:47:09.110Z,16.09
2022-10-05T13:48:31.176Z,16.11
2022-10-05T13:49:40.333Z,16.20
2022-10-05T13:50:45.705Z,16.12
2022-10-05T13:52:09.343Z,16.09
2022-10-05T13:54:35.274Z,16.17
2022-10-05T13:55:40.463Z,16.13
2022-10-05T13:56:46.509Z,16.08
2022-10-05T13:58:05.350Z,15.95
2022-10-05T13:59:12.491Z,15.93
2022-10-05T14:00:26.268Z,16.05
2022-10-05T14:01:37.456Z,15.99
2022-10-05T14:02:42.769Z,15.97
2022-10-05T14:04:04.013Z,16.00
2022-10-05T14:05:25.003Z,16.11
2022-10-05T14:06:29.609Z,15.91
2022-10-05T14:07:34.567Z,16.04
2022-10-05T14:08:49.979Z,16.00
2022-10-05T14:09:53.523Z,16.04
2022-10-05T14:10:57.732Z,16.07
2022-10-05T14:12:07.169Z,15.96
2022-10-05T14:13:11.939Z,15.91
2022-10-05T14:15:36.292Z,16.17
2022-10-05T14:16:43.768Z,16.09
2022-10-05T14:17:47.685Z,15.96
2022-10-05T14:18:52.032Z,15.87
2022-10-05T14:19:57.313Z,15.98
2022-10-05T14:21:08.864Z,15.83
2022-10-05T14:22:16.231Z,15.85
2022-10-05T14:23:22.462Z,15.96
2022-10-05T14:24:46.627Z,15.97
2022-10-05T14:25:40.178Z,15.88
2022-10-05T14:26:45.386Z,15.77
2022-10-05T14:27:53.599Z,15.75
2022-10-05T14:28:58.557Z,15.80
2022-10-05T14:30:03.566Z,15.89
2022-10-05T14:31:09.025Z,15.90
2022-10-05T14:32:13.003Z,15.80
2022-10-05T14:33:18.723Z,15.79
2022-10-05T14:34:36.902Z,15.78
2022-10-05T14:35:49.643Z,15.80
2022-10-05T14:36:56.424Z,15.91
2022-10-05T14:38:02.088Z,15.95
2022-10-05T14:39:08.759Z,15.80
2022-10-05T14:40:28.844Z,15.69
2022-10-05T14:41:38.291Z,15.79
2022-10-05T14:42:47.255Z,15.83
2022-10-05T14:43:50.657Z,15.61
2022-10-05T14:44:59.906Z,15.69
2022-10-05T14:46:05.605Z,15.77
2022-10-05T14:47:20.788Z,15.83
2022-10-05T14:48:25.263Z,15.74
2022-10-05T14:49:30.478Z,15.73
2022-10-05T14:50:33.954Z,15.69
2022-10-05T14:51:37.871Z,15.59
2022-10-05T14:52:43.003Z,15.58
2022-10-05T14:53:50.031Z,15.63
2022-10-05T14:54:55.483Z,15.62
2022-10-05T14:56:08.055Z,15.71
2022-10-05T14:57:13.386Z,15.54
2022-10-05T14:58:35.548Z,15.51
2022-10-05T14:59:45.944Z,15.53
2022-10-05T15:00:58.519Z,15.62
2022-10-05T15:02:20.803Z,15.69
2022-10-05T15:03:30.510Z,15.47
2022-10-05T15:04:35.483Z,15.48
2022-10-05T15:05:40.548Z,15.54
2022-10-05T15:06:45.122Z,15.52
2022-10-05T15:07:50.181Z,15.37
2022-10-05T15:09:00.789Z,15.42
2022-10-05T15:10:24.765Z,15.54
2022-10-05T15:11:42.467Z,15.60
2022-10-05T15:12:49.115Z,15.59
2022-10-05T15:13:54.714Z,15.52
2022-10-05T15:15:00.103Z,15.49
2022-10-05T15:16:07.280Z,15.54
2022-10-05T15:17:28.748Z,15.58
2022-10-05T15:18:52.074Z,15.55
2022-10-05T15:20:12.218Z,15.54
2022-10-05T15:21:23.317Z,15.52
2022-10-05T15:22:33.505Z,15.26
2022-10-05T15:23:46.509Z,15.30
2022-10-05T15:24:54.616Z,15.34
2022-10-05T15:26:04.914Z,15.27
2022-10-05T15:27:10.609Z,15.35
2022-10-05T15:28:16.971Z,15.41
2022-10-05T15:29:27.530Z,15.44
2022-10-05T15:30:31.697Z,15.47
2022-10-05T15:31:37.785Z,15.46
2022-10-05T15:32:42.954Z,15.45
2022-10-05T15:33:48.132Z,15.36
2022-10-05T15:35:12.910Z,15.41
2022-10-05T15:36:18.327Z,15.44
2022-10-05T15:37:23.412Z,15.51
2022-10-05T15:38:32.465Z,15.47
2022-10-05T15:39:44.320Z,15.42
2022-10-05T15:41:06.085Z,15.41
2022-10-05T15:42:13.156Z,15.44
2022-10-05T15:43:18.327Z,15.44
2022-10-05T15:44:26.742Z,15.43
2022-10-05T15:45:33.117Z,15.38
2022-10-05T15:46:44.094Z,15.34
2022-10-05T15:47:52.925Z,15.34
2022-10-05T15:49:02.593Z,15.35
2022-10-05T15:50:11.678Z,15.31
2022-10-05T15:51:18.561Z,15.33
2022-10-05T15:52:24.336Z,15.30
2022-10-05T15:53:35.946Z,15.31
2022-10-05T15:54:44.483Z,15.31